createdAt,value
2018-07-31T00:03:04.642Z,38.93
2018-07-31T00:13:07.149Z,39.69
2018-07-31T00:23:09.649Z,38.62
2018-07-31T00:33:12.025Z,38.48
2018-07-31T00:43:14.526Z,38.70
2018-07-31T00:53:17.081Z,39.20
2018-07-31T01:03:19.444Z,39.45
2018-07-31T01:13:21.905Z,39.78
2018-07-31T01:23:24.434Z,38.98
2018-07-31T01:33:26.970Z,39.64
2018-07-31T01:43:29.492Z,38.67
2018-07-31T01:53:31.976Z,40.06
2018-07-31T02:03:34.333Z,39.30
2018-07-31T02:13:36.855Z,39.92
2018-07-31T02:23:39.362Z,39.59
2018-07-31T02:33:41.746Z,39.11
2018-07-31T02:43:44.225Z,39.66
2018-07-31T02:53:46.716Z,38.59
2018-07-31T03:03:49.107Z,39.97
2018-07-31T03:13:51.610Z,39.19
2018-07-31T03:23:54.138Z,39.81
2018-07-31T03:33:56.617Z,39.08
2018-07-31T03:43:58.993Z,39.53
2018-07-31T03:54:01.451Z,39.08
2018-07-31T04:04:03.820Z,39.84
2018-07-31T04:14:06.161Z,39.42
2018-07-31T04:24:08.696Z,39.35
2018-07-31T04:34:11.192Z,39.56
2018-07-31T04:44:14.582Z,40.07
2018-07-31T04:54:17.049Z,39.57
2018-07-31T05:04:19.434Z,39.42
2018-07-31T05:14:21.898Z,38.77
2018-07-31T05:24:24.233Z,39.07
2018-07-31T05:34:26.741Z,39.94
2018-07-31T05:44:29.263Z,38.82
2018-07-31T05:54:31.790Z,38.87
2018-07-31T06:04:34.154Z,38.70
2018-07-31T06:14:36.636Z,37.53
2018-07-31T06:24:39.144Z,36.38
2018-07-31T06:34:41.565Z,37.01
2018-07-31T06:44:43.985Z,35.50
2018-07-31T06:54:46.336Z,35.14
2018-07-31T07:04:48.896Z,34.89
2018-07-31T07:14:51.381Z,35.86
2018-07-31T07:24:53.886Z,35.23
2018-07-31T07:34:56.277Z,36.85
2018-07-31T07:44:58.730Z,35.83
2018-07-31T07:55:01.051Z,35.28
2018-07-31T08:05:03.444Z,36.38
2018-07-31T08:15:05.945Z,37.30
2018-07-31T08:25:08.469Z,35.24
2018-07-31T08:35:10.945Z,36.54
2018-07-31T08:45:13.333Z,35.38
2018-07-31T08:55:15.837Z,36.28
2018-07-31T09:05:18.333Z,35.75
2018-07-31T09:15:20.652Z,35.60
2018-07-31T09:25:23.000Z,36.75
2018-07-31T09:35:25.510Z,35.02
2018-07-31T09:45:27.875Z,35.50
2018-07-31T09:55:30.332Z,36.33
2018-07-31T10:05:32.660Z,35.76
2018-07-31T10:15:34.995Z,37.84
2018-07-31T10:25:37.396Z,35.96
2018-07-31T10:35:40.027Z,34.92
2018-07-31T10:45:42.372Z,35.53
2018-07-31T10:55:44.695Z,35.54
2018-07-31T11:05:47.283Z,35.94
2018-07-31T11:15:49.729Z,35.81
2018-07-31T11:25:52.081Z,36.33
2018-07-31T11:35:54.952Z,35.66
2018-07-31T11:45:57.312Z,33.49
2018-07-31T11:55:59.664Z,33.90
2018-07-31T12:06:02.155Z,34.00
2018-07-31T12:16:05.257Z,35.79
2018-07-31T12:26:08.311Z,35.77
2018-07-31T12:36:11.462Z,35.01
2018-07-31T12:46:14.572Z,35.92
2018-07-31T12:56:17.541Z,34.85
2018-07-31T13:06:20.519Z,34.67
2018-07-31T13:16:24.403Z,31.33
2018-07-31T13:26:27.340Z,33.46
2018-07-31T13:36:30.513Z,33.25
2018-07-31T13:46:33.725Z,32.42
2018-07-31T13:56:36.857Z,33.34
2018-07-31T14:06:39.909Z,33.92
2018-07-31T14:16:43.048Z,34.26
2018-07-31T14:26:47.101Z,32.87
2018-07-31T14:36:50.189Z,33.96
2018-07-31T14:46:53.374Z,32.70
2018-07-31T14:56:56.528Z,32.79
2018-07-31T15:06:59.554Z,34.06
2018-07-31T15:17:02.589Z,34.22
2018-07-31T15:27:05.737Z,31.94
2018-07-31T15:37:08.776Z,33.49
2018-07-31T15:47:12.026Z,34.00
2018-07-31T15:57:25.407Z,33.45
2018-07-31T16:07:28.426Z,33.42
2018-07-31T16:17:31.376Z,32.96
2018-07-31T16:27:34.413Z,32.88
2018-07-31T16:37:37.506Z,34.20
2018-07-31T16:47:39.920Z,33.26
2018-07-31T16:57:42.273Z,33.76
2018-07-31T17:07:44.766Z,33.75
2018-07-31T17:17:47.310Z,34.30
2018-07-31T17:27:49.896Z,34.96
2018-07-31T17:37:52.765Z,32.95
2018-07-31T17:47:55.616Z,31.64
2018-07-31T17:57:57.994Z,32.57
2018-07-31T18:08:00.376Z,32.32
2018-07-31T18:18:02.943Z,33.26
2018-07-31T18:28:05.394Z,33.00
2018-07-31T18:38:07.906Z,32.30
2018-07-31T18:48:10.280Z,31.53
2018-07-31T18:58:12.627Z,32.64
2018-07-31T19:08:15.101Z,32.36
2018-07-31T19:18:17.620Z,34.33
2018-07-31T19:28:20.175Z,35.02
2018-07-31T19:38:22.461Z,32.40
2018-07-31T19:48:24.990Z,32.61
2018-07-31T19:58:27.306Z,33.07
2018-07-31T20:08:29.803Z,32.75
2018-07-31T20:18:32.176Z,31.47
2018-07-31T20:28:34.675Z,32.56
2018-07-31T20:38:36.988Z,32.94
2018-07-31T20:48:39.341Z,32.78
2018-07-31T20:58:41.855Z,34.22
2018-07-31T21:08:44.367Z,32.95
2018-07-31T21:18:46.954Z,33.83
2018-07-31T21:28:49.737Z,33.53
2018-07-31T21:38:52.238Z,34.13
2018-07-31T21:48:54.793Z,34.74
2018-07-31T21:58:57.701Z,34.04
2018-07-31T22:09:00.132Z,34.90
2018-07-31T22:19:02.498Z,34.72
2018-07-31T22:29:04.971Z,34.09
2018-07-31T22:39:07.901Z,34.41
2018-07-31T22:49:10.264Z,34.38
2018-07-31T22:59:13.132Z,34.89
2018-07-31T23:09:15.878Z,35.13
2018-07-31T23:19:18.272Z,34.57
2018-07-31T23:29:20.756Z,35.41
2018-07-31T23:39:23.923Z,35.72
2018-07-31T23:49:26.393Z,34.98
2018-07-31T23:59:28.833Z,35.60
